Kyancutta, Australia
Current Conditions -  °F | °C
As of 6:00 PM on Friday 19 Dec 2014 (Local Time) from YWHA Reporting Station
Clear Clear  
Wind Chill: 72°   Ceiling: Unl
Heat Index: 72°   Visibility: 6mi
Dew Point: 54°   Wind: 21mph
Humidity: 53%   Direction: 180°S
Pressure: 30.06"   Gusts: NA
Location:  33.13°S, 135.55°E
Report Text: YWHA 190800Z AUTO 18018KT 9999 // NCD 22/12 Q1018
Loading
Personal Weather Stations






























Interactive Weather Map New forecast layout! Learn more

10-Day Weather Forecast

Advertisements
Track Severe Weather on mobile